Racecast

Gavin Hicks

Temperance Bedford (MI) · 8 · SECMI D1MONROE · Compare head to head

Athlete rating 82.4 2025 XC season
Best race 84.4 XC
Races 23
Seasons 3 2023 — 2025

RankedNation #76227·MI #7034·Team #84 ?

Rating scale ?

Cross Country

2025 XC 74.7

Temperance Bedford (MI) · Grade 8

Date Meet Event Result Place Rating Difficulty PR/SR Flags
2025-10-31 Willow Metropark OFFICIAL 3218m 16:49.47 100th · 12th on team +0.027 ★PR ★CR SR CSR
2025-10-18 Airport HS 3218m 24:55.5 150th · 24th on team 67.8 +0.033 ★CR CSR
2025-10-15 Saline High School 3218m 19:43.4 110th · 14th on team 82.2 +0.016 PR ★CR SR CSR
2025-10-04 Monroe Township Stoneco Park 3218m 21:21.61 99th · 25th on team 77.1 +0.006 CSR
2025-10-01 Heritage Park (Adrian) OFFICIAL 3218m 20:27.6 111th · 15th on team 83.3 +0.046 ★CR SR CSR RSR
2025-09-27 Lake Erie Metro Park OFFICIAL 3200m 29:56 268th · 23rd on team 56.5 +0.034 SR CSR
2025-09-19 Ella Sharp Park OFFICIAL 3218m 22:22.6 234th · 25th on team 76.3 +0.055
2025-09-17 Ella Sharp Park OFFICIAL 3218m 21:30.3 109th · 10th on team 79.5 +0.055 ★CR SR CSR RSR

2024 XC 74.8

Temperance Bedford (MI) · Grade 7

Date Meet Event Result Place Rating Difficulty PR/SR Flags
2024-10-23 Milan HS OFFICIAL 3218m 21:13.54 129th · 11th on team 80.1 +0.041 CSR
2024-10-16 Munson Park 3218m 20:09.9 118th · 13th on team 83.2 +0.034 PR ★CR SR CSR
2024-10-12 Munson Park 3200m 23:55 155th · 23rd on team 69.8 +0.034 ★CR CSR
2024-10-05 Monroe Township Stoneco Park 3218m 20:19.49 89th · 20th on team 80.5 +0.006 ★CR SR CSR
2024-10-02 Lincoln Middle School 3218m 24:15.7 113th · 11th on team 70.0 +0.043 ★CR SR CSR
2024-09-28 Lake Erie Metro Park OFFICIAL 3200m 20:06.9 202nd · 21st on team 83.2 +0.034 ★PR ★CR SR CSR RSR
2024-09-19 Manly W. Bennett Park 3218m 31:19.15 118th · 14th on team 56.6 +0.100 ★CR SR CSR RSR

2023 XC 72.7

Temperance Bedford (MI) · Grade 6

Date Meet Event Result Place Rating Difficulty PR/SR Flags
2023-10-25 Milan HS OFFICIAL 3218m 20:17.5 96th · 11th on team 84.4 +0.041 PR ★CR ★R SR CSR RSR
2023-10-18 Indian Creek OFFICIAL 3218m 28:05.2 107th · 11th on team +0.038 ★CR CSR
2023-10-14 Munson Park 3200m 30:13.7 155th · 21st on team 56.1 +0.034 PR CR SR CSR
2023-10-07 Monroe Township Stoneco Park 3218m 23:11.7 94th · 20th on team 71.2 +0.006 CR CSR
2023-10-04 Ella Sharp Park OFFICIAL 3218m 24:47 106th · 10th on team 69.9 +0.055 CR CSR
2023-09-30 Lake Erie Metro Park OFFICIAL 3218m 21:41.1 223rd · 18th on team 78.0 +0.034 ★CR CSR
2023-09-22 Ella Sharp Park OFFICIAL 3218m 25:08.4 299th · 21st on team 68.8 +0.055 CR CSR
2023-09-20 Heritage Park (Adrian) OFFICIAL 3218m 20:59.8 96th · 9th on team 80.7 +0.046 PR CR R SR CSR RSR